Time;durP1;ratioP1;P1;durP2;ratioP2;P2;SDS_P1;SDS_P2;PMS_P1;PMS_P2;Temp;Humidity;BMP_temperature;BMP_pressure;BME280_temperature;BME280_humidity;BME280_pressure;Samples;Min_cycle;Max_cycle;Signal;HPM_P1;HPM_P2
2023/04/05 00:01:25;;;;;;;5.15;4.10;;;;;;;1.80;85.61;99210.66;4188918;28;20203;-49
2023/04/05 00:03:27;;;;;;;6.28;5.32;;;;;;;1.77;85.88;99205.63;4168254;28;20196;-49
2023/04/05 00:05:29;;;;;;;6.35;5.75;;;;;;;1.75;86.20;99207.63;4167398;28;20277;-49
2023/04/05 00:07:33;;;;;;;5.57;4.82;;;;;;;1.70;86.30;99204.66;4152326;28;20628;-48
2023/04/05 00:09:35;;;;;;;6.93;4.65;;;;;;;1.67;85.94;99204.16;4189226;28;20245;-49
2023/04/05 00:11:37;;;;;;;5.30;4.80;;;;;;;1.64;86.30;99202.66;4186156;28;20207;-49
2023/04/05 00:13:38;;;;;;;5.97;5.47;;;;;;;1.60;86.64;99198.63;4153354;28;20298;-49
2023/04/05 00:15:40;;;;;;;6.40;5.55;;;;;;;1.57;86.82;99195.44;4159234;28;20262;-48
2023/04/05 00:17:43;;;;;;;9.88;5.25;;;;;;;1.55;87.13;99195.59;4152306;28;20246;-48
2023/04/05 00:19:50;;;;;;;5.60;5.13;;;;;;;1.60;87.29;99187.03;4179157;28;20259;-49
2023/04/05 00:21:53;;;;;;;6.30;5.80;;;;;;;1.60;87.59;99195.94;4169485;28;20682;-48
2023/04/05 00:23:58;;;;;;;6.88;6.25;;;;;;;1.56;87.31;99188.38;4187804;28;20204;-50
2023/04/05 00:26:00;;;;;;;7.00;6.40;;;;;;;1.65;88.25;99196.25;4171224;28;20224;-49
2023/04/05 00:28:02;;;;;;;7.05;5.97;;;;;;;1.63;87.85;99182.09;4170938;28;20211;-50
2023/04/05 00:30:05;;;;;;;5.60;5.13;;;;;;;1.41;88.21;99199.06;4178537;28;20207;-49
2023/04/05 00:32:07;;;;;;;4.97;4.57;;;;;;;1.52;88.24;99187.88;4154921;28;20618;-50
2023/04/05 00:34:11;;;;;;;5.22;4.82;;;;;;;1.41;88.02;99188.28;4175604;28;20209;-49
2023/04/05 00:36:15;;;;;;;5.15;3.92;;;;;;;1.39;88.04;99189.47;4203922;28;20234;-50
2023/04/05 00:38:17;;;;;;;3.55;3.25;;;;;;;1.32;87.26;99178.56;4202174;28;20206;-49
2023/04/05 00:40:19;;;;;;;4.50;4.20;;;;;;;1.40;88.25;99185.78;4171383;28;20721;-49
2023/04/05 00:42:22;;;;;;;4.35;4.05;;;;;;;1.38;87.47;99185.94;4169667;28;20741;-49
2023/04/05 00:44:23;;;;;;;4.30;4.00;;;;;;;1.56;87.60;99185.69;4168885;28;20222;-49
2023/04/05 00:46:25;;;;;;;5.28;4.78;;;;;;;1.48;87.63;99178.47;4205542;28;20281;-48
2023/04/05 00:48:28;;;;;;;5.20;4.28;;;;;;;1.42;87.97;99179.16;4169550;28;20685;-48
2023/04/05 00:50:30;;;;;;;4.82;4.38;;;;;;;1.46;87.77;99183.19;4178440;28;20665;-48
2023/04/05 00:52:32;;;;;;;5.07;4.32;;;;;;;1.36;87.60;99188.00;4172847;28;20204;-49
2023/04/05 00:54:34;;;;;;;4.78;4.32;;;;;;;1.35;88.32;99188.97;4191808;28;20207;-48
2023/04/05 00:56:36;;;;;;;5.47;4.97;;;;;;;1.43;88.00;99188.09;4169220;28;20763;-49
2023/04/05 00:58:40;;;;;;;5.40;4.68;;;;;;;1.38;88.24;99187.78;4166534;28;20724;-48
2023/04/05 01:00:46;;;;;;;5.28;4.78;;;;;;;1.38;88.42;99180.56;4184165;28;20207;-49
2023/04/05 01:02:51;;;;;;;5.35;4.93;;;;;;;1.32;88.65;99178.56;4177613;28;20200;-49
2023/04/05 01:05:00;;;;;;;6.22;5.63;;;;;;;1.24;88.89;99181.28;4173155;28;20216;-48
2023/04/05 01:07:13;;;;;;;6.60;5.28;;;;;;;1.23;89.07;99174.22;4175344;28;20286;-48
2023/04/05 01:09:34;;;;;;;6.03;5.53;;;;;;;1.18;89.71;99176.59;4159905;28;20213;-48
2023/04/05 01:11:37;;;;;;;6.28;5.78;;;;;;;1.23;89.57;99168.84;4170952;28;20235;-49
2023/04/05 01:13:40;;;;;;;5.85;5.35;;;;;;;1.18;89.56;99173.91;4167929;28;21227;-49
2023/04/05 01:15:41;;;;;;;6.50;4.57;;;;;;;1.17;89.18;99169.53;4171191;28;20266;-48
2023/04/05 01:17:45;;;;;;;7.35;4.30;;;;;;;1.23;89.66;99163.44;4171106;28;20255;-49
2023/04/05 01:19:52;;;;;;;4.65;4.35;;;;;;;1.13;89.73;99168.19;4176658;28;20208;-48
2023/04/05 01:22:36;;;;;;;4.97;4.57;;;;;;;1.16;89.80;99167.88;4152036;28;20296;-48
2023/04/05 01:25:05;;;;;;;4.93;4.50;;;;;;;1.08;89.12;99159.78;4164386;28;20210;-48
2023/04/05 01:27:13;;;;;;;5.60;4.78;;;;;;;1.15;89.62;99155.38;4170258;28;20232;-50
2023/04/05 01:29:20;;;;;;;4.13;3.83;;;;;;;1.06;89.69;99151.06;4174574;28;20864;-49
2023/04/05 01:31:45;;;;;;;8.05;4.38;;;;;;;1.14;89.22;99151.00;4169862;28;20208;-49
2023/04/05 01:33:55;;;;;;;4.85;4.45;;;;;;;1.05;89.44;99160.16;4169268;28;20239;-48
2023/04/05 01:36:03;;;;;;;4.03;3.67;;;;;;;1.04;89.44;99152.22;4176840;28;20321;-49
2023/04/05 01:38:06;;;;;;;4.22;3.83;;;;;;;1.00;89.37;99154.44;4170493;28;20232;-48
2023/04/05 01:40:09;;;;;;;4.80;4.40;;;;;;;0.99;89.57;99152.75;4169032;28;20253;-49
2023/04/05 01:42:11;;;;;;;4.45;4.05;;;;;;;1.09;89.71;99149.88;4188043;28;20204;-48
2023/04/05 01:44:12;;;;;;;4.85;4.45;;;;;;;0.98;89.68;99156.47;4170482;28;20232;-49
2023/04/05 01:46:14;;;;;;;4.07;3.65;;;;;;;1.11;89.77;99159.47;4172199;28;20773;-49
2023/04/05 01:48:16;;;;;;;5.50;4.20;;;;;;;1.03;89.69;99154.09;4169313;28;20266;-48
2023/04/05 01:50:18;;;;;;;4.97;4.38;;;;;;;0.95;89.87;99154.09;4169077;28;20240;-49
2023/04/05 01:52:20;;;;;;;5.07;4.68;;;;;;;0.95;90.19;99148.72;4170300;28;20216;-48
2023/04/05 01:54:22;;;;;;;5.65;5.15;;;;;;;0.96;90.51;99149.56;4170123;28;20654;-49
2023/04/05 01:56:24;;;;;;;4.50;4.20;;;;;;;0.96;90.19;99147.75;4157104;28;20236;-48
2023/04/05 01:58:26;;;;;;;6.78;4.30;;;;;;;0.86;90.34;99149.78;4166298;28;20208;-48
2023/04/05 02:00:29;;;;;;;4.78;4.45;;;;;;;0.91;90.95;99146.56;4168439;28;20211;-48
2023/04/05 02:02:31;;;;;;;5.22;4.82;;;;;;;0.78;90.76;99140.88;4184349;28;20235;-48
2023/04/05 02:04:34;;;;;;;6.68;6.07;;;;;;;0.84;90.22;99135.66;4170497;28;20666;-48
2023/04/05 02:06:36;;;;;;;6.05;5.50;;;;;;;0.74;90.74;99134.19;4189293;28;20220;-48
2023/04/05 02:08:37;;;;;;;10.00;4.47;;;;;;;0.67;90.54;99131.31;4169998;28;20890;-49
2023/04/05 02:10:40;;;;;;;4.57;4.22;;;;;;;0.39;91.02;99135.44;4168624;28;20660;-48
2023/04/05 02:12:42;;;;;;;5.17;4.77;;;;;;;0.33;92.64;99140.63;4160164;28;20255;-49
2023/04/05 02:14:44;;;;;;;4.93;4.53;;;;;;;0.34;92.02;99132.41;4200066;28;20880;-48
2023/04/05 02:16:46;;;;;;;3.88;3.58;;;;;;;0.36;92.15;99143.84;4155510;28;20295;-49
2023/04/05 02:18:49;;;;;;;4.82;4.10;;;;;;;0.39;91.88;99135.44;4184672;28;20212;-48
2023/04/05 02:20:51;;;;;;;4.30;4.00;;;;;;;0.38;91.58;99133.75;4191889;28;20203;-48
2023/04/05 02:22:53;;;;;;;5.90;4.75;;;;;;;0.41;91.83;99129.88;4167840;28;20296;-48
2023/04/05 02:24:55;;;;;;;4.50;4.10;;;;;;;0.33;91.51;99130.72;4171502;28;20197;-49
2023/04/05 02:26:57;;;;;;;7.23;4.80;;;;;;;0.30;91.52;99127.53;4182805;28;20228;-49
2023/04/05 02:28:59;;;;;;;4.93;4.63;;;;;;;0.27;92.07;99128.72;4176489;28;20220;-49
2023/04/05 02:31:01;;;;;;;5.03;4.53;;;;;;;0.27;91.73;99128.72;4169982;28;20295;-48
2023/04/05 02:33:03;;;;;;;5.13;4.75;;;;;;;0.26;92.03;99129.75;4176874;28;20230;-48
2023/04/05 02:35:06;;;;;;;5.50;5.00;;;;;;;0.41;92.14;99138.78;4174942;28;20211;-49
2023/04/05 02:37:07;;;;;;;6.05;5.57;;;;;;;0.38;92.31;99131.06;4175561;28;20259;-48
2023/04/05 02:39:09;;;;;;;6.70;6.00;;;;;;;0.47;92.22;99132.72;4201272;28;20215;-49
2023/04/05 02:41:11;;;;;;;6.70;6.03;;;;;;;0.40;91.99;99142.50;4170722;28;20254;-49
2023/04/05 02:43:13;;;;;;;7.23;6.53;;;;;;;0.40;92.29;99131.72;4158550;28;20303;-49
2023/04/05 02:45:15;;;;;;;6.03;5.38;;;;;;;0.47;92.00;99126.50;4183409;28;20257;-49
2023/04/05 02:47:20;;;;;;;5.57;5.17;;;;;;;0.48;92.36;99123.63;4174987;28;20224;-49
2023/04/05 02:49:22;;;;;;;5.23;4.73;;;;;;;0.49;91.94;99119.91;4170217;28;20314;-49
2023/04/05 02:51:24;;;;;;;5.10;4.70;;;;;;;0.48;91.97;99112.84;4167970;28;20643;-49
2023/04/05 02:53:25;;;;;;;6.97;4.07;;;;;;;0.38;92.80;99119.44;4169434;28;20695;-49
2023/04/05 02:55:29;;;;;;;5.93;4.97;;;;;;;0.30;92.39;99120.31;4176280;28;20220;-48
2023/04/05 02:57:31;;;;;;;3.90;3.60;;;;;;;0.35;92.42;99117.13;4174879;28;20215;-48
2023/04/05 02:59:33;;;;;;;5.07;4.50;;;;;;;0.34;92.11;99116.25;4183677;28;20234;-48
2023/04/05 03:01:42;;;;;;;5.15;4.75;;;;;;;0.32;92.27;99118.28;4202244;28;20208;-48
2023/04/05 03:03:45;;;;;;;5.27;4.87;;;;;;;0.35;92.44;99115.25;4168952;28;20208;-50
2023/04/05 03:05:48;;;;;;;4.93;4.45;;;;;;;0.31;92.51;99118.44;4159633;28;20220;-49
2023/04/05 03:07:51;;;;;;;5.03;4.57;;;;;;;0.26;92.23;99124.34;4164687;28;20573;-49
2023/04/05 03:09:53;;;;;;;4.88;4.57;;;;;;;0.26;92.35;99116.28;4169683;28;20280;-49
2023/04/05 03:11:54;;;;;;;5.60;5.05;;;;;;;0.29;92.21;99113.22;4168598;28;20628;-50
2023/04/05 03:13:56;;;;;;;5.32;4.82;;;;;;;0.29;92.15;99113.22;4192608;28;20222;-49
2023/04/05 03:15:58;;;;;;;6.60;5.77;;;;;;;0.29;92.42;99113.22;4176351;28;20267;-49
2023/04/05 03:18:00;;;;;;;8.35;7.55;;;;;;;0.19;92.48;99117.97;4168263;28;20716;-49
2023/04/05 03:20:05;;;;;;;7.18;6.57;;;;;;;0.13;92.70;99115.09;4183157;28;20210;-48
2023/04/05 03:22:07;;;;;;;7.15;6.50;;;;;;;0.10;93.50;99121.69;4186240;28;20554;-49
2023/04/05 03:24:09;;;;;;;6.93;6.43;;;;;;;0.12;93.92;99122.34;4199462;28;20214;-50
2023/04/05 03:26:13;;;;;;;5.73;5.13;;;;;;;0.05;93.98;99110.59;4153918;28;20311;-49
2023/04/05 03:28:17;;;;;;;5.72;5.32;;;;;;;0.15;93.71;99111.25;4167935;28;20690;-49
2023/04/05 03:30:19;;;;;;;6.20;5.63;;;;;;;0.15;94.36;99115.81;4166783;28;20258;-50
2023/04/05 03:32:21;;;;;;;7.33;6.73;;;;;;;0.14;94.13;99114.94;4159647;28;20771;-49
2023/04/05 03:34:27;;;;;;;6.07;5.43;;;;;;;0.22;93.99;99106.84;4175294;28;20463;-49
2023/04/05 03:36:29;;;;;;;6.83;5.97;;;;;;;0.07;93.75;99119.31;4159204;28;20379;-49
2023/04/05 03:38:31;;;;;;;5.53;5.13;;;;;;;0.04;93.59;99118.81;4175135;28;20205;-49
2023/04/05 03:40:33;;;;;;;6.40;5.83;;;;;;;0.15;93.46;99121.19;4199003;28;20206;-48
2023/04/05 03:42:35;;;;;;;5.53;5.03;;;;;;;0.13;93.95;99117.81;4171098;28;20239;-49
2023/04/05 03:44:37;;;;;;;5.27;4.57;;;;;;;0.00;93.48;99137.16;4187835;28;20269;-49
2023/04/05 03:46:38;;;;;;;5.57;5.17;;;;;;;-0.06;93.87;99123.56;4168266;28;20271;-49
2023/04/05 03:48:40;;;;;;;8.60;5.37;;;;;;;-0.12;94.13;99119.66;4174102;28;20684;-49
2023/04/05 03:50:42;;;;;;;5.47;5.03;;;;;;;-0.18;93.88;99113.28;4188466;28;20285;-49
2023/04/05 03:52:45;;;;;;;6.23;5.73;;;;;;;-0.09;94.07;99117.69;4202338;28;21165;-50
2023/04/05 03:54:46;;;;;;;7.70;6.23;;;;;;;-0.12;93.99;99111.59;4155566;28;20220;-49
2023/04/05 03:56:49;;;;;;;8.00;7.10;;;;;;;0.09;93.84;99111.91;4186065;28;20590;-49
2023/04/05 03:58:51;;;;;;;8.07;7.47;;;;;;;-0.30;95.14;99106.56;4173274;28;20209;-49
2023/04/05 04:00:55;;;;;;;6.90;6.40;;;;;;;-0.26;94.68;99099.84;4169738;28;20624;-49
2023/04/05 04:02:57;;;;;;;6.50;5.90;;;;;;;-0.21;94.58;99113.63;4168475;28;20324;-49
2023/04/05 04:05:00;;;;;;;5.93;5.47;;;;;;;-0.27;94.42;99108.91;4170627;28;20259;-49
2023/04/05 04:07:02;;;;;;;5.67;5.23;;;;;;;-0.31;94.43;99112.94;4174610;28;20224;-49
2023/04/05 04:09:04;;;;;;;7.27;5.47;;;;;;;-0.30;94.65;99103.88;4171752;28;20262;-49
2023/04/05 04:11:07;;;;;;;5.07;4.77;;;;;;;-0.31;94.55;99108.41;4171579;28;20246;-50
2023/04/05 04:13:08;;;;;;;4.43;4.13;;;;;;;-0.32;94.57;99116.63;4191925;28;20612;-49
2023/04/05 04:15:11;;;;;;;5.53;5.03;;;;;;;-0.32;94.62;99111.25;4175718;28;20614;-50
2023/04/05 04:17:28;;;;;;;5.27;4.83;;;;;;;-0.32;94.63;99112.13;4161857;28;20236;-49
2023/04/05 04:19:30;;;;;;;5.83;5.37;;;;;;;-0.31;94.44;99110.25;4173808;28;20271;-49
2023/04/05 04:21:32;;;;;;;4.13;3.83;;;;;;;-0.38;94.63;99118.16;4177568;28;20200;-48
2023/04/05 04:23:37;;;;;;;5.10;4.63;;;;;;;-0.36;94.72;99118.81;4174915;28;20208;-50
2023/04/05 04:25:39;;;;;;;5.23;4.73;;;;;;;-0.35;94.85;99122.38;4172758;28;20216;-49
2023/04/05 04:27:42;;;;;;;5.80;5.33;;;;;;;-0.27;94.58;99125.06;4175578;28;20299;-50
2023/04/05 04:29:47;;;;;;;4.60;4.20;;;;;;;-0.32;94.61;99124.72;4173936;28;20199;-49
2023/04/05 04:31:50;;;;;;;5.03;4.60;;;;;;;-0.34;94.52;99124.88;4174894;28;20208;-49
2023/04/05 04:33:52;;;;;;;4.97;4.57;;;;;;;-0.41;94.60;99123.03;4190050;28;20223;-50
2023/04/05 04:35:54;;;;;;;5.67;5.27;;;;;;;-0.41;94.74;99128.41;4185646;28;20215;-49
2023/04/05 04:38:00;;;;;;;5.20;4.80;;;;;;;-0.41;95.02;99118.47;4170853;28;20238;-50
2023/04/05 04:40:07;;;;;;;4.17;3.87;;;;;;;-0.38;95.02;99120.00;4172270;28;20223;-49
2023/04/05 04:42:10;;;;;;;6.13;5.63;;;;;;;-0.40;95.25;99116.63;4169515;28;20278;-49
2023/04/05 04:44:13;;;;;;;8.17;5.87;;;;;;;-0.40;95.55;99113.94;4201603;28;20325;-49
2023/04/05 04:46:17;;;;;;;6.87;5.73;;;;;;;-0.48;95.42;99116.63;4172313;28;20636;-49
2023/04/05 04:48:21;;;;;;;6.93;6.43;;;;;;;-0.51;95.74;99114.25;4163314;28;20216;-49
2023/04/05 04:50:22;;;;;;;8.67;7.70;;;;;;;-0.53;95.92;99109.06;4175255;28;20204;-49
2023/04/05 04:52:24;;;;;;;8.70;8.00;;;;;;;-0.52;96.14;99109.91;4175750;28;20333;-51
2023/04/05 04:54:27;;;;;;;7.93;7.20;;;;;;;-0.46;95.90;99114.63;4160106;28;21031;-49
2023/04/05 04:56:30;;;;;;;7.43;6.83;;;;;;;-0.46;95.77;99115.47;4154782;28;20236;-49
2023/04/05 04:58:32;;;;;;;6.97;6.33;;;;;;;-0.48;95.73;99105.88;4170967;28;20218;-49
2023/04/05 05:00:34;;;;;;;8.60;8.00;;;;;;;-0.54;95.80;99117.31;4200906;28;20203;-50
2023/04/05 05:02:36;;;;;;;5.93;5.33;;;;;;;-0.49;95.66;99120.34;4199647;28;20290;-51
2023/04/05 05:04:40;;;;;;;5.90;5.03;;;;;;;-0.57;95.81;99118.47;4172230;28;20212;-50
2023/04/05 05:06:42;;;;;;;6.00;5.57;;;;;;;-0.62;96.01;99119.97;4190753;28;20641;-50
2023/04/05 05:08:45;;;;;;;4.97;4.57;;;;;;;-0.66;95.96;99124.84;4169146;28;20235;-50
2023/04/05 05:10:53;;;;;;;5.27;4.87;;;;;;;-0.66;96.04;99130.22;4170832;28;20200;-49
2023/04/05 05:12:55;;;;;;;5.33;4.93;;;;;;;-0.56;95.87;99124.69;4177005;28;20273;-50
2023/04/05 05:14:56;;;;;;;7.47;5.27;;;;;;;-0.62;95.84;99130.72;4167643;28;20212;-49
2023/04/05 05:16:58;;;;;;;5.03;4.53;;;;;;;-0.56;95.81;99125.50;4171137;28;20227;-49
2023/04/05 05:19:00;;;;;;;5.50;5.13;;;;;;;-0.63;95.85;99134.38;4182813;28;20250;-49
2023/04/05 05:21:02;;;;;;;5.43;5.03;;;;;;;-0.65;96.03;99133.72;4168768;28;20263;-51
2023/04/05 05:23:04;;;;;;;5.53;4.90;;;;;;;-0.69;96.24;99124.34;4171276;28;20295;-49
2023/04/05 05:25:07;;;;;;;5.50;4.13;;;;;;;-0.67;96.38;99133.88;4175184;28;20670;-49
2023/04/05 05:27:09;;;;;;;6.27;5.83;;;;;;;-0.74;96.12;99127.47;4171834;28;20228;-49
2023/04/05 05:29:11;;;;;;;6.17;5.77;;;;;;;-0.79;96.58;99129.00;4169604;28;20721;-50
2023/04/05 05:31:13;;;;;;;7.73;7.03;;;;;;;-0.85;96.73;99129.66;4193712;28;20689;-49
2023/04/05 05:33:14;;;;;;;7.37;6.87;;;;;;;-0.83;97.05;99130.31;4153863;28;20267;-50
2023/04/05 05:35:17;;;;;;;6.00;5.50;;;;;;;-0.75;96.80;99133.03;4190064;28;20288;-50
2023/04/05 05:37:32;;;;;;;11.07;5.73;;;;;;;-0.67;96.88;99128.50;4198257;28;20231;-50
2023/04/05 05:39:38;;;;;;;6.90;6.40;;;;;;;-0.53;96.53;99122.50;4168836;28;20211;-50
2023/04/05 05:41:46;;;;;;;6.80;6.30;;;;;;;-0.60;96.86;99126.03;4184181;28;20260;-49
2023/04/05 05:43:53;;;;;;;6.20;5.60;;;;;;;-0.50;97.08;99129.38;4152533;28;21051;-49
2023/04/05 05:46:00;;;;;;;6.80;6.20;;;;;;;-0.39;97.74;99129.06;4176346;28;20293;-48
2023/04/05 05:48:06;;;;;;;7.27;6.57;;;;;;;-0.21;97.56;99127.06;4159205;28;20785;-50
2023/04/05 05:50:11;;;;;;;7.23;6.73;;;;;;;-0.06;97.32;99129.75;4169323;28;20200;-49
2023/04/05 05:52:17;;;;;;;7.60;5.67;;;;;;;0.29;98.93;99129.38;4187867;28;20212;-50
2023/04/05 05:54:22;;;;;;;6.13;5.60;;;;;;;0.45;98.32;99129.38;4171953;28;20594;-49
2023/04/05 05:56:27;;;;;;;6.40;6.00;;;;;;;0.70;98.97;99122.91;4171171;28;20265;-49
2023/04/05 05:58:33;;;;;;;7.07;6.47;;;;;;;0.53;97.01;99125.78;4170122;28;20216;-50
2023/04/05 06:00:37;;;;;;;9.93;5.93;;;;;;;0.36;97.63;99135.75;4191408;28;20215;-49
2023/04/05 06:02:45;;;;;;;7.03;6.40;;;;;;;0.46;98.18;99136.44;4169844;28;20296;-50
2023/04/05 06:04:50;;;;;;;6.40;5.90;;;;;;;0.86;98.80;99144.38;4169125;28;20291;-49
2023/04/05 06:06:58;;;;;;;8.23;7.63;;;;;;;1.42;99.26;99144.13;4202198;28;20743;-49
2023/04/05 06:09:02;;;;;;;8.70;5.50;;;;;;;1.77;96.67;99135.50;4157355;28;20208;-49
2023/04/05 06:11:06;;;;;;;7.40;6.70;;;;;;;1.75;93.10;99142.06;4184561;28;20799;-49
2023/04/05 06:13:11;;;;;;;6.90;6.30;;;;;;;1.90;94.53;99140.28;4203104;28;20215;-49
2023/04/05 06:15:16;;;;;;;6.63;5.60;;;;;;;2.24;93.80;99128.00;4189837;28;20207;-49
2023/04/05 06:17:21;;;;;;;5.78;5.03;;;;;;;3.02;91.98;99136.47;4199348;28;20759;-49
2023/04/05 06:19:25;;;;;;;6.13;5.68;;;;;;;3.29;89.54;99136.63;4167832;28;20620;-49
2023/04/05 06:21:29;;;;;;;7.82;5.65;;;;;;;2.99;87.82;99129.56;4157219;28;20224;-49
2023/04/05 06:23:36;;;;;;;7.25;6.28;;;;;;;1.97;88.37;99131.28;4174731;28;20227;-49
2023/04/05 06:25:39;;;;;;;5.13;4.72;;;;;;;1.79;90.53;99133.44;4183261;28;20303;-50
2023/04/05 06:27:44;;;;;;;11.15;5.68;;;;;;;2.46;90.36;99129.81;4169151;28;20299;-48
2023/04/05 06:29:49;;;;;;;6.57;5.43;;;;;;;2.30;88.76;99132.69;4165890;28;20235;-49
2023/04/05 06:31:51;;;;;;;5.93;5.50;;;;;;;3.21;88.95;99139.41;4183122;28;20243;-48
2023/04/05 06:33:53;;;;;;;5.28;4.82;;;;;;;4.32;84.49;99130.63;4167730;28;20637;-49
2023/04/05 06:35:55;;;;;;;5.13;4.65;;;;;;;4.63;83.23;99133.81;4166259;28;20232;-49
2023/04/05 06:37:57;;;;;;;4.30;4.00;;;;;;;5.79;79.10;99138.16;4188025;28;20264;-49
2023/04/05 06:39:58;;;;;;;5.25;4.72;;;;;;;5.27;77.99;99138.81;4168977;28;20284;-49
2023/04/05 06:42:00;;;;;;;6.00;5.50;;;;;;;5.31;77.05;99133.81;4172339;28;20220;-51
2023/04/05 06:44:02;;;;;;;5.88;5.07;;;;;;;5.45;77.26;99133.66;4168610;28;20302;-50
2023/04/05 06:46:07;;;;;;;5.85;5.30;;;;;;;5.88;76.08;99137.81;4184259;28;20767;-49
2023/04/05 06:48:09;;;;;;;6.38;5.72;;;;;;;6.64;73.21;99126.41;4199124;28;20661;-50
2023/04/05 06:50:11;;;;;;;5.95;4.55;;;;;;;6.90;71.26;99128.25;4167973;28;20247;-49
2023/04/05 06:52:13;;;;;;;4.88;4.47;;;;;;;6.55;70.75;99129.53;4167283;28;20216;-49
2023/04/05 06:54:15;;;;;;;5.68;5.18;;;;;;;6.40;70.94;99128.88;4157274;28;20208;-49
2023/04/05 06:56:17;;;;;;;5.82;5.32;;;;;;;7.03;71.63;99133.66;4188036;28;20708;-50
2023/04/05 06:58:19;;;;;;;5.75;4.22;;;;;;;7.34;67.15;99133.75;4166499;28;20224;-49
2023/04/05 07:00:21;;;;;;;4.32;4.03;;;;;;;7.83;66.17;99136.72;4168062;28;20209;-49
2023/04/05 07:02:22;;;;;;;5.50;5.05;;;;;;;8.29;64.96;99131.84;4169474;28;20706;-50
2023/04/05 07:04:25;;;;;;;5.70;5.25;;;;;;;8.28;63.96;99130.19;4173717;28;20685;-50
2023/04/05 07:06:27;;;;;;;6.78;5.13;;;;;;;8.38;63.94;99125.06;4199077;28;20219;-50
2023/04/05 07:08:31;;;;;;;4.90;4.50;;;;;;;7.74;62.52;99127.09;4172556;28;20243;-50
2023/04/05 07:13:54;;;;;;;5.90;5.32;;;;;;;8.54;62.50;99119.09;4164489;28;20591;-49
2023/04/05 07:16:00;;;;;;;6.43;5.80;;;;;;;7.50;64.80;99130.56;4171216;28;20227;-49
2023/04/05 07:18:02;;;;;;;5.55;5.05;;;;;;;7.99;65.57;99133.47;4170649;28;20227;-48
2023/04/05 07:20:08;;;;;;;5.45;4.95;;;;;;;8.23;63.71;99132.72;4166657;28;20209;-51
2023/04/05 07:22:10;;;;;;;6.88;4.78;;;;;;;6.69;65.13;99125.75;4183012;28;20270;-50
2023/04/05 07:24:12;;;;;;;7.43;5.00;;;;;;;6.58;68.51;99123.66;4184871;28;20208;-50
2023/04/05 07:26:14;;;;;;;5.95;5.45;;;;;;;7.13;69.36;99137.59;4176639;28;20230;-48
2023/04/05 07:28:15;;;;;;;5.55;5.03;;;;;;;7.94;65.19;99133.28;4177810;28;22853;-50
2023/04/05 07:30:17;;;;;;;5.57;5.05;;;;;;;8.32;63.80;99120.50;4170381;28;20239;-50
2023/04/05 07:32:19;;;;;;;5.80;5.20;;;;;;;8.07;63.92;99125.03;4170409;28;20243;-49
2023/04/05 07:34:21;;;;;;;6.20;5.60;;;;;;;8.53;62.84;99128.28;4172759;28;20267;-48
2023/04/05 07:36:23;;;;;;;5.95;5.47;;;;;;;7.88;63.02;99134.19;4171556;28;20259;-49
2023/04/05 07:38:27;;;;;;;6.47;5.97;;;;;;;7.66;66.44;99130.06;4185949;28;20229;-49
2023/04/05 07:40:30;;;;;;;6.22;5.72;;;;;;;8.13;65.64;99127.72;4204082;28;20210;-49
2023/04/05 07:42:35;;;;;;;6.18;5.60;;;;;;;8.57;63.43;99124.94;4185876;28;20256;-50
2023/04/05 07:44:42;;;;;;;4.30;4.00;;;;;;;7.64;64.21;99126.75;4178204;28;20200;-49
2023/04/05 07:46:47;;;;;;;6.07;5.47;;;;;;;7.35;65.76;99135.47;4170791;28;20263;-49
2023/04/05 07:48:50;;;;;;;9.63;5.65;;;;;;;8.61;64.15;99125.31;4178779;28;20207;-49
2023/04/05 07:50:52;;;;;;;6.82;5.28;;;;;;;9.12;62.29;99128.59;4179328;28;20212;-49
2023/04/05 07:52:55;;;;;;;5.68;5.18;;;;;;;9.00;61.12;99116.75;4172381;28;20709;-50
2023/04/05 07:54:57;;;;;;;5.10;4.80;;;;;;;10.28;57.94;99120.00;4191274;28;20237;-50
2023/04/05 07:57:02;;;;;;;3.65;3.40;;;;;;;10.60;55.29;99122.22;4162716;28;20684;-50
2023/04/05 07:59:06;;;;;;;4.95;4.55;;;;;;;10.64;55.58;99119.84;4169900;28;20227;-49
2023/04/05 08:01:09;;;;;;;5.13;4.72;;;;;;;10.65;53.33;99126.97;4170926;28;20231;-50
2023/04/05 08:03:11;;;;;;;4.78;4.43;;;;;;;10.76;52.90;99123.44;4160619;28;20204;-49
2023/04/05 08:05:13;;;;;;;4.15;3.85;;;;;;;11.09;52.45;99128.09;4160766;28;20308;-48
2023/04/05 08:07:16;;;;;;;7.20;4.20;;;;;;;9.73;52.45;99118.41;4171683;28;20225;-49
2023/04/05 08:09:17;;;;;;;4.10;3.67;;;;;;;10.92;53.04;99124.38;4171800;28;20275;-50
2023/04/05 08:11:20;;;;;;;3.53;3.22;;;;;;;11.30;50.80;99122.00;4170479;28;20647;-51
2023/04/05 08:13:25;;;;;;;3.78;3.47;;;;;;;10.36;52.85;99117.75;4151548;28;20201;-49
2023/04/05 08:18:35;;;;;;;7.20;3.88;;;;;;;10.50;53.89;99111.03;4166725;28;20596;-48
2023/04/05 08:20:58;;;;;;;3.58;3.13;;;;;;;11.26;52.23;99115.34;4176036;28;20642;-49
2023/04/05 08:23:30;;;;;;;3.58;2.95;;;;;;;11.27;51.78;99111.53;4182788;28;20261;-49
2023/04/05 08:31:58;;;;;;;4.18;3.60;;;;;;;10.70;49.53;99111.53;4168215;28;20227;-48
2023/04/05 08:34:00;;;;;;;4.63;4.18;;;;;;;10.31;53.90;99108.56;4154668;28;20201;-47
2023/04/05 08:40:07;;;;;;;4.00;2.92;;;;;;;12.08;49.24;99106.69;4164738;28;20203;-49
2023/04/05 08:42:17;;;;;;;3.80;3.50;;;;;;;10.72;47.29;99105.78;4168793;28;20204;-48
2023/04/05 08:44:54;;;;;;;2.97;2.78;;;;;;;9.80;49.67;99097.28;4178077;28;20802;-50
2023/04/05 08:50:18;;;;;;;3.22;2.47;;;;;;;11.75;48.42;99101.09;4172907;28;20192;-49
2023/04/05 08:52:20;;;;;;;3.30;3.00;;;;;;;11.25;47.73;99099.94;4169912;28;20239;-49
2023/04/05 08:54:21;;;;;;;3.88;2.75;;;;;;;11.72;49.11;99100.75;4184946;28;20209;-50
2023/04/05 08:56:32;;;;;;;3.10;2.70;;;;;;;10.59;46.31;99100.53;4174302;28;20254;-49
2023/04/05 08:58:37;;;;;;;2.83;2.63;;;;;;;11.11;49.06;99089.50;4153715;28;20308;-50
2023/04/05 09:00:41;;;;;;;3.83;3.10;;;;;;;11.58;48.68;99102.91;4153967;28;20659;-49
2023/04/05 09:02:44;;;;;;;2.58;2.38;;;;;;;10.82;46.33;99092.38;4173782;28;20207;-49
2023/04/05 09:04:46;;;;;;;2.95;2.75;;;;;;;10.39;47.89;99089.09;4185589;28;20658;-49
2023/04/05 09:06:50;;;;;;;3.13;2.83;;;;;;;11.24;48.60;99106.50;4168056;28;20825;-49
2023/04/05 09:08:52;;;;;;;2.75;2.55;;;;;;;10.98;48.03;99090.56;4168689;28;21150;-49
2023/04/05 09:10:54;;;;;;;3.20;2.88;;;;;;;10.61;44.82;99104.72;4174351;28;20946;-49
2023/04/05 09:13:06;;;;;;;3.00;2.58;;;;;;;10.77;46.39;99097.72;4171950;28;20246;-48
2023/04/05 09:15:20;;;;;;;4.75;2.97;;;;;;;10.53;47.26;99098.75;4162814;28;20208;-48
2023/04/05 09:17:22;;;;;;;3.03;2.72;;;;;;;10.64;46.75;99098.78;4182964;28;20233;-48
2023/04/05 09:19:24;;;;;;;3.03;2.70;;;;;;;10.55;48.48;99096.63;4173007;28;20224;-48
2023/04/05 09:21:28;;;;;;;3.45;3.15;;;;;;;11.45;47.04;99097.66;4177653;28;20211;-49
2023/04/05 09:23:30;;;;;;;3.60;3.20;;;;;;;11.13;46.43;99095.56;4171280;28;20306;-47
2023/04/05 09:25:33;;;;;;;4.97;3.55;;;;;;;11.52;45.90;99097.53;4171885;28;20612;-49
2023/04/05 09:27:34;;;;;;;3.33;3.00;;;;;;;11.74;46.97;99093.09;4162719;28;20212;-48
2023/04/05 09:29:38;;;;;;;3.10;2.78;;;;;;;12.63;44.54;99088.47;4190254;28;20203;-48
2023/04/05 09:31:42;;;;;;;4.30;3.05;;;;;;;12.63;45.08;99088.47;4169500;28;20267;-48
2023/04/05 09:33:45;;;;;;;5.15;3.00;;;;;;;13.42;45.12;99085.31;4153219;28;20256;-49
2023/04/05 09:35:49;;;;;;;3.20;2.80;;;;;;;13.49;44.49;99080.47;4171313;28;20724;-48
2023/04/05 09:37:56;;;;;;;3.90;2.42;;;;;;;13.12;44.61;99086.81;4184590;28;20207;-47
2023/04/05 09:40:03;;;;;;;2.55;2.35;;;;;;;12.57;43.09;99081.22;4168897;28;20665;-48
2023/04/05 09:42:14;;;;;;;3.70;3.38;;;;;;;12.69;44.65;99076.47;4173120;28;20681;-48
2023/04/05 09:44:16;;;;;;;3.78;3.03;;;;;;;12.28;45.99;99070.53;4169732;28;20218;-48
2023/04/05 09:46:32;;;;;;;2.47;2.28;;;;;;;10.42;41.09;99072.22;4168960;28;20300;-45
2023/04/05 09:48:55;;;;;;;3.10;2.78;;;;;;;9.95;42.82;99070.41;4166269;28;20212;-48
2023/04/05 09:51:04;;;;;;;3.60;2.72;;;;;;;10.27;42.92;99075.38;4174677;28;20671;-47
2023/04/05 09:53:17;;;;;;;1.83;1.73;;;;;;;9.74;44.04;99069.00;4185546;28;20219;-48
2023/04/05 09:55:27;;;;;;;2.65;2.38;;;;;;;11.13;44.56;99074.50;4172923;28;22427;-47
2023/04/05 09:57:33;;;;;;;6.30;2.90;;;;;;;11.06;43.78;99076.53;4158800;28;20243;-49
2023/04/05 09:59:35;;;;;;;5.20;2.58;;;;;;;11.01;42.40;99070.94;4171728;28;20692;-49
2023/04/05 10:01:38;;;;;;;3.05;2.72;;;;;;;11.59;42.36;99066.22;4168475;28;20212;-47
2023/04/05 10:03:46;;;;;;;3.65;2.22;;;;;;;11.92;43.27;99077.28;4167857;28;20212;-47
2023/04/05 10:05:54;;;;;;;4.45;2.65;;;;;;;11.48;40.64;99067.03;4204412;28;20226;-47
2023/04/05 10:07:57;;;;;;;2.53;2.33;;;;;;;10.98;41.53;99063.19;4173159;28;20234;-47
2023/04/05 10:09:59;;;;;;;4.30;3.05;;;;;;;11.47;41.88;99065.38;4174996;28;20211;-47